createdAt,value
2019-04-30T00:02:02.787Z,6.90
2019-04-30T00:07:58.739Z,6.74
2019-04-30T00:10:45.364Z,6.67
2019-04-30T00:13:35.925Z,6.63
2019-04-30T00:16:20.931Z,7.24
2019-04-30T00:19:10.678Z,6.72
2019-04-30T00:22:00.125Z,7.30
2019-04-30T00:24:49.823Z,7.43
2019-04-30T00:27:32.391Z,6.85
2019-04-30T00:30:18.895Z,6.67
2019-04-30T00:33:05.833Z,6.55
2019-04-30T00:35:57.838Z,6.45
2019-04-30T00:38:41.827Z,6.35
2019-04-30T00:41:30.246Z,6.27
2019-04-30T00:44:15.246Z,6.19
2019-04-30T00:47:04.971Z,6.11
2019-04-30T00:49:52.236Z,6.05
2019-04-30T00:52:37.614Z,6.69
2019-04-30T00:58:30.441Z,6.04
2019-04-30T01:01:25.399Z,5.97
2019-04-30T01:04:11.819Z,6.61
2019-04-30T01:07:00.233Z,6.09
2019-04-30T01:09:49.433Z,5.98
2019-04-30T01:12:36.993Z,5.88
2019-04-30T01:15:19.804Z,5.82
2019-04-30T01:18:06.324Z,5.76
2019-04-30T01:20:53.254Z,5.70
2019-04-30T01:23:43.095Z,5.68
2019-04-30T01:26:27.674Z,5.63
2019-04-30T01:29:13.412Z,6.29
2019-04-30T01:32:00.200Z,5.80
2019-04-30T01:34:52.219Z,5.68
2019-04-30T01:37:35.761Z,5.60
2019-04-30T01:40:23.286Z,5.53
2019-04-30T01:43:10.730Z,5.47
2019-04-30T01:46:01.768Z,6.12
2019-04-30T01:48:48.625Z,5.60
2019-04-30T01:51:33.806Z,5.46
2019-04-30T01:54:23.958Z,5.36
2019-04-30T02:00:13.272Z,5.21
2019-04-30T02:03:00.287Z,5.17
2019-04-30T02:05:54.342Z,5.80
2019-04-30T02:08:51.396Z,5.30
2019-04-30T02:11:38.846Z,5.16
2019-04-30T02:14:31.760Z,5.10
2019-04-30T02:17:19.249Z,5.05
2019-04-30T02:20:08.880Z,5.02
2019-04-30T02:22:54.488Z,5.67
2019-04-30T02:25:41.133Z,5.20
2019-04-30T02:28:29.013Z,5.11
2019-04-30T02:34:25.018Z,5.68
2019-04-30T02:40:23.284Z,5.29
2019-04-30T02:43:09.697Z,5.15
2019-04-30T02:45:56.414Z,5.06
2019-04-30T02:51:49.959Z,5.15
2019-04-30T02:54:35.594Z,5.73
2019-04-30T02:57:23.465Z,5.20
2019-04-30T03:00:12.649Z,5.04
2019-04-30T03:03:14.111Z,5.66
2019-04-30T03:06:03.730Z,5.82
2019-04-30T03:11:59.925Z,4.95
2019-04-30T03:15:00.411Z,4.85
2019-04-30T03:17:45.581Z,4.74
2019-04-30T03:20:36.281Z,5.37
2019-04-30T03:23:24.001Z,5.55
2019-04-30T03:29:31.601Z,4.74
2019-04-30T03:32:22.807Z,5.36
2019-04-30T03:35:12.227Z,4.76
2019-04-30T03:37:59.128Z,4.59
2019-04-30T03:40:44.010Z,4.51
2019-04-30T03:43:33.607Z,4.41
2019-04-30T03:46:20.448Z,5.10
2019-04-30T03:49:06.949Z,4.55
2019-04-30T03:51:55.905Z,5.13
2019-04-30T03:54:42.534Z,4.57
2019-04-30T03:57:43.489Z,4.45
2019-04-30T04:00:30.550Z,4.35
2019-04-30T04:03:20.049Z,4.30
2019-04-30T04:06:21.423Z,4.24
2019-04-30T04:09:24.430Z,4.24
2019-04-30T04:15:29.906Z,4.99
2019-04-30T04:18:16.128Z,4.50
2019-04-30T04:21:11.330Z,4.42
2019-04-30T04:24:07.066Z,4.41
2019-04-30T04:26:53.859Z,5.18
2019-04-30T04:29:51.273Z,4.73
2019-04-30T04:35:44.081Z,4.64
2019-04-30T04:38:30.708Z,4.66
2019-04-30T04:44:23.903Z,4.66
2019-04-30T04:47:16.006Z,4.70
2019-04-30T04:50:00.781Z,4.74
2019-04-30T04:52:46.424Z,4.76
2019-04-30T04:55:33.141Z,4.81
2019-04-30T04:58:21.444Z,4.87
2019-04-30T05:01:08.660Z,4.91
2019-04-30T05:03:53.989Z,4.96
2019-04-30T05:06:41.237Z,5.01
2019-04-30T05:09:28.711Z,5.07
2019-04-30T05:12:18.573Z,5.09
2019-04-30T05:15:06.469Z,5.17
2019-04-30T05:17:53.180Z,5.22
2019-04-30T05:20:41.762Z,5.28
2019-04-30T05:23:29.796Z,5.31
2019-04-30T05:26:15.005Z,5.38
2019-04-30T05:29:03.640Z,5.45
2019-04-30T05:31:50.373Z,5.50
2019-04-30T05:34:51.605Z,5.58
2019-04-30T05:37:38.680Z,5.62
2019-04-30T05:40:25.830Z,5.69
2019-04-30T05:46:19.636Z,5.83
2019-04-30T05:49:05.577Z,5.92
2019-04-30T05:51:55.664Z,6.02
2019-04-30T05:54:41.589Z,6.10
2019-04-30T05:57:29.421Z,6.23
2019-04-30T06:00:14.946Z,6.37
2019-04-30T06:03:01.789Z,6.46
2019-04-30T06:05:49.298Z,6.57
2019-04-30T06:08:35.390Z,6.67
2019-04-30T06:11:41.335Z,6.75
2019-04-30T06:14:28.703Z,6.86
2019-04-30T06:17:20.963Z,7.01
2019-04-30T06:20:17.865Z,7.08
2019-04-30T06:22:54.536Z,7.24
2019-04-30T06:25:56.371Z,7.37
2019-04-30T06:28:29.238Z,8.31
2019-04-30T06:31:15.490Z,7.97
2019-04-30T06:34:02.372Z,8.03
2019-04-30T06:36:53.103Z,8.10
2019-04-30T06:39:38.792Z,8.25
2019-04-30T06:42:25.147Z,8.42
2019-04-30T06:45:11.579Z,8.56
2019-04-30T06:48:05.641Z,8.72
2019-04-30T06:50:52.366Z,9.70
2019-04-30T06:53:39.256Z,9.17
2019-04-30T06:56:25.854Z,9.28
2019-04-30T06:59:12.613Z,10.40
2019-04-30T07:02:06.544Z,9.90
2019-04-30T07:04:53.933Z,9.78
2019-04-30T07:07:41.729Z,9.89
2019-04-30T07:10:29.346Z,10.11
2019-04-30T07:13:15.428Z,10.13
2019-04-30T07:19:09.340Z,10.24
2019-04-30T07:21:54.549Z,10.34
2019-04-30T07:24:49.633Z,10.58
2019-04-30T07:30:41.010Z,10.85
2019-04-30T07:33:29.466Z,10.86
2019-04-30T07:36:43.362Z,10.76
2019-04-30T07:39:15.176Z,11.17
2019-04-30T07:42:01.681Z,11.22
2019-04-30T07:44:50.220Z,11.46
2019-04-30T07:47:34.824Z,12.85
2019-04-30T07:50:22.625Z,12.25
2019-04-30T07:53:11.073Z,12.22
2019-04-30T07:55:58.736Z,12.28
2019-04-30T07:58:43.756Z,12.37
2019-04-30T08:01:30.423Z,12.43
2019-04-30T08:04:25.929Z,13.62
2019-04-30T08:07:12.983Z,12.91
2019-04-30T08:09:59.441Z,12.86
2019-04-30T08:12:46.461Z,12.68
2019-04-30T08:15:33.129Z,12.71
2019-04-30T08:18:19.939Z,12.79
2019-04-30T08:21:13.812Z,12.91
2019-04-30T08:24:01.114Z,12.91
2019-04-30T08:26:46.973Z,13.01
2019-04-30T08:29:33.907Z,13.14
2019-04-30T08:32:21.077Z,13.35
2019-04-30T08:35:09.931Z,14.63
2019-04-30T08:37:55.284Z,14.94
2019-04-30T08:40:55.565Z,14.02
2019-04-30T08:43:31.480Z,14.05
2019-04-30T08:46:19.071Z,14.13
2019-04-30T08:49:05.413Z,14.00
2019-04-30T08:55:10.792Z,14.47
2019-04-30T09:00:50.112Z,14.30
2019-04-30T09:03:39.140Z,14.45
2019-04-30T09:06:23.729Z,14.60
2019-04-30T09:09:11.284Z,14.62
2019-04-30T09:11:59.187Z,14.83
2019-04-30T09:14:44.761Z,14.88
2019-04-30T09:17:31.287Z,14.91
2019-04-30T09:20:19.398Z,15.02
2019-04-30T09:23:05.283Z,15.14
2019-04-30T09:25:53.007Z,15.30
2019-04-30T09:28:41.082Z,15.17
2019-04-30T09:31:27.096Z,15.34
2019-04-30T09:34:18.569Z,15.43
2019-04-30T09:37:03.174Z,15.61
2019-04-30T09:39:50.416Z,15.66
2019-04-30T09:42:39.011Z,15.77
2019-04-30T09:45:24.647Z,15.79
2019-04-30T09:48:11.611Z,15.78
2019-04-30T09:51:00.466Z,17.30
2019-04-30T09:54:02.388Z,16.47
2019-04-30T09:56:46.042Z,16.45
2019-04-30T09:59:32.546Z,16.40
2019-04-30T10:02:19.371Z,16.35
2019-04-30T10:05:09.591Z,16.74
2019-04-30T10:07:56.141Z,16.85
2019-04-30T10:10:54.917Z,16.94
2019-04-30T10:13:41.816Z,17.03
2019-04-30T10:16:31.695Z,17.10
2019-04-30T10:19:19.322Z,17.07
2019-04-30T10:22:06.147Z,17.23
2019-04-30T10:24:53.437Z,17.32
2019-04-30T10:27:40.782Z,17.30
2019-04-30T10:30:41.426Z,17.52
2019-04-30T10:33:28.744Z,17.55
2019-04-30T10:36:14.828Z,17.69
2019-04-30T10:39:01.839Z,17.83
2019-04-30T10:41:48.843Z,17.91
2019-04-30T10:44:35.851Z,18.07
2019-04-30T10:47:22.718Z,18.07
2019-04-30T10:50:10.052Z,18.17
2019-04-30T10:52:59.004Z,18.33
2019-04-30T10:55:45.258Z,18.21
2019-04-30T10:58:32.850Z,18.44
2019-04-30T11:04:25.010Z,18.56
2019-04-30T11:07:14.970Z,18.74
2019-04-30T11:10:02.023Z,18.59
2019-04-30T11:12:48.792Z,18.70
2019-04-30T11:15:35.834Z,18.67
2019-04-30T11:18:23.093Z,18.83
2019-04-30T11:21:10.086Z,18.95
2019-04-30T11:23:59.225Z,19.09
2019-04-30T11:26:44.733Z,19.23
2019-04-30T11:29:31.026Z,19.40
2019-04-30T11:32:20.028Z,19.30
2019-04-30T11:35:06.449Z,19.31
2019-04-30T11:37:55.900Z,19.23
2019-04-30T11:40:43.197Z,19.03
2019-04-30T11:43:29.726Z,19.31
2019-04-30T11:46:25.251Z,19.57
2019-04-30T11:49:12.474Z,19.32
2019-04-30T11:51:59.716Z,19.35
2019-04-30T11:54:51.486Z,19.43
2019-04-30T11:57:33.307Z,19.36
2019-04-30T12:00:23.004Z,19.29
2019-04-30T12:03:09.686Z,19.55
2019-04-30T12:05:56.193Z,19.64
2019-04-30T12:08:59.116Z,19.73
2019-04-30T12:11:44.642Z,19.80
2019-04-30T12:14:31.463Z,19.93
2019-04-30T12:17:18.142Z,20.00
2019-04-30T12:20:08.694Z,19.98
2019-04-30T12:23:11.741Z,19.80
2019-04-30T12:25:55.385Z,19.79
2019-04-30T12:28:41.778Z,20.08
2019-04-30T12:31:30.208Z,20.21
2019-04-30T12:34:14.932Z,20.33
2019-04-30T12:37:01.781Z,20.46
2019-04-30T12:39:49.596Z,20.45
2019-04-30T12:42:36.042Z,20.60
2019-04-30T12:45:22.592Z,20.78
2019-04-30T12:48:15.236Z,20.80
2019-04-30T12:51:19.900Z,20.26
2019-04-30T12:54:06.973Z,20.17
2019-04-30T12:56:54.514Z,20.26
2019-04-30T12:59:43.790Z,20.27
2019-04-30T13:02:30.333Z,20.42
2019-04-30T13:05:18.692Z,20.68
2019-04-30T13:08:03.780Z,20.64
2019-04-30T13:10:57.505Z,20.75
2019-04-30T13:13:44.460Z,20.70
2019-04-30T13:16:32.913Z,20.62
2019-04-30T13:19:20.232Z,20.87
2019-04-30T13:22:09.059Z,21.13
2019-04-30T13:24:55.023Z,21.29
2019-04-30T13:27:41.582Z,21.33
2019-04-30T13:30:29.877Z,21.34
2019-04-30T13:33:20.454Z,21.59
2019-04-30T13:36:06.470Z,21.67
2019-04-30T13:38:52.942Z,21.69
2019-04-30T13:41:46.403Z,22.88
2019-04-30T13:44:33.472Z,22.04
2019-04-30T13:47:29.277Z,21.92
2019-04-30T13:50:14.587Z,21.80
2019-04-30T13:53:00.986Z,21.65
2019-04-30T13:55:48.938Z,21.72
2019-04-30T13:58:34.755Z,23.04
2019-04-30T14:01:21.501Z,22.45
2019-04-30T14:04:19.964Z,22.53
2019-04-30T14:07:09.454Z,22.69
2019-04-30T14:09:55.910Z,22.98
2019-04-30T14:12:42.621Z,22.87
2019-04-30T14:15:29.289Z,22.99
2019-04-30T14:18:30.987Z,22.80
2019-04-30T14:21:10.149Z,22.86
2019-04-30T14:23:57.057Z,23.09
2019-04-30T14:26:43.988Z,23.06
2019-04-30T14:29:31.272Z,22.81
2019-04-30T14:32:18.579Z,22.94
2019-04-30T14:35:05.224Z,23.96
2019-04-30T14:37:52.341Z,24.28
2019-04-30T14:40:40.408Z,23.37
2019-04-30T14:43:41.974Z,22.67
2019-04-30T14:46:29.890Z,22.49
2019-04-30T14:49:34.462Z,22.61
2019-04-30T14:52:20.719Z,22.43
2019-04-30T14:55:08.875Z,23.73
2019-04-30T14:58:07.181Z,22.76
2019-04-30T15:00:54.073Z,22.58
2019-04-30T15:03:41.102Z,22.52
2019-04-30T15:06:28.212Z,22.70
2019-04-30T15:09:15.086Z,23.21
2019-04-30T15:12:01.628Z,23.18
2019-04-30T15:14:49.318Z,22.98
2019-04-30T15:17:35.643Z,24.78
2019-04-30T15:20:22.144Z,24.26
2019-04-30T15:23:27.641Z,24.46
2019-04-30T15:26:22.145Z,24.89
2019-04-30T15:29:00.589Z,25.23
2019-04-30T15:31:47.598Z,24.82
2019-04-30T15:34:34.035Z,24.85
2019-04-30T15:37:23.648Z,26.88
2019-04-30T15:40:09.064Z,26.04
2019-04-30T15:42:55.225Z,25.98
2019-04-30T15:45:41.696Z,25.84
2019-04-30T15:48:29.071Z,25.47
2019-04-30T15:51:15.692Z,25.00
2019-04-30T15:54:02.543Z,24.56
2019-04-30T15:56:49.418Z,24.40
2019-04-30T15:59:39.791Z,24.57
2019-04-30T16:02:28.629Z,24.09
2019-04-30T16:05:31.472Z,24.07
2019-04-30T16:08:21.095Z,24.18
2019-04-30T16:11:25.826Z,24.34
2019-04-30T16:14:25.818Z,25.17
2019-04-30T16:17:12.320Z,25.00
2019-04-30T16:19:59.178Z,24.70
2019-04-30T16:22:45.843Z,26.71
2019-04-30T16:25:32.969Z,25.50
2019-04-30T16:28:19.665Z,25.70
2019-04-30T16:31:06.155Z,25.25
2019-04-30T16:33:52.879Z,25.09
2019-04-30T16:36:40.104Z,25.44
2019-04-30T16:39:28.723Z,25.59
2019-04-30T16:42:14.325Z,25.88
2019-04-30T16:45:01.326Z,25.94
2019-04-30T16:47:48.316Z,25.66
2019-04-30T16:50:35.583Z,25.60
2019-04-30T16:53:22.899Z,25.24
2019-04-30T16:56:09.789Z,24.73
2019-04-30T16:58:59.288Z,24.10
2019-04-30T17:01:56.821Z,23.72
2019-04-30T17:04:32.414Z,23.59
2019-04-30T17:07:20.023Z,24.79
2019-04-30T17:10:08.874Z,23.60
2019-04-30T17:16:10.967Z,24.55
2019-04-30T17:18:55.095Z,26.63
2019-04-30T17:21:42.900Z,25.64
2019-04-30T17:24:30.238Z,25.81
2019-04-30T17:27:21.577Z,25.89
2019-04-30T17:30:03.021Z,25.61
2019-04-30T17:32:50.187Z,25.15
2019-04-30T17:35:38.752Z,25.87
2019-04-30T17:38:25.547Z,23.93
2019-04-30T17:41:12.363Z,24.47
2019-04-30T17:43:59.378Z,22.58
2019-04-30T17:46:46.005Z,21.84
2019-04-30T17:49:33.061Z,21.27
2019-04-30T17:52:20.180Z,20.83
2019-04-30T17:55:06.987Z,20.52
2019-04-30T17:57:55.031Z,20.13
2019-04-30T18:00:40.257Z,19.86
2019-04-30T18:03:28.867Z,19.55
2019-04-30T18:06:13.402Z,19.17
2019-04-30T18:09:00.723Z,18.91
2019-04-30T18:11:49.404Z,18.67
2019-04-30T18:14:33.867Z,19.38
2019-04-30T18:17:26.533Z,18.38
2019-04-30T18:20:16.659Z,18.02
2019-04-30T18:23:09.499Z,17.72
2019-04-30T18:25:56.116Z,17.41
2019-04-30T18:28:46.006Z,17.15
2019-04-30T18:31:32.719Z,16.90
2019-04-30T18:37:24.999Z,16.38
2019-04-30T18:40:11.759Z,16.16
2019-04-30T18:43:01.454Z,16.85
2019-04-30T18:45:49.449Z,16.03
2019-04-30T18:48:35.363Z,15.76
2019-04-30T18:51:33.664Z,15.58
2019-04-30T18:54:09.869Z,15.36
2019-04-30T18:56:58.813Z,15.12
2019-04-30T18:59:44.002Z,14.91
2019-04-30T19:02:30.785Z,14.75
2019-04-30T19:08:25.832Z,14.41
2019-04-30T19:11:23.929Z,14.26
2019-04-30T19:14:13.678Z,14.13
2019-04-30T19:20:10.685Z,13.79
2019-04-30T19:22:55.573Z,13.63
2019-04-30T19:25:56.839Z,13.48
2019-04-30T19:28:43.702Z,13.29
2019-04-30T19:31:30.245Z,13.10
2019-04-30T19:34:17.622Z,12.89
2019-04-30T19:37:19.689Z,12.73
2019-04-30T19:40:05.407Z,12.55
2019-04-30T19:42:51.785Z,12.43
2019-04-30T19:45:38.362Z,12.31
2019-04-30T19:48:35.450Z,12.19
2019-04-30T19:51:22.140Z,12.07
2019-04-30T19:54:11.348Z,11.98
2019-04-30T19:56:56.346Z,11.92
2019-04-30T19:59:43.225Z,11.85
2019-04-30T20:02:29.801Z,11.79
2019-04-30T20:05:16.567Z,11.72
2019-04-30T20:08:03.175Z,11.64
2019-04-30T20:10:50.128Z,11.56
2019-04-30T20:13:37.348Z,12.26
2019-04-30T20:16:23.750Z,11.64
2019-04-30T20:19:10.277Z,11.46
2019-04-30T20:21:56.849Z,11.34
2019-04-30T20:24:43.332Z,12.05
2019-04-30T20:27:29.956Z,11.39
2019-04-30T20:30:16.337Z,11.17
2019-04-30T20:33:03.199Z,10.96
2019-04-30T20:35:50.174Z,10.79
2019-04-30T20:38:37.308Z,10.68
2019-04-30T20:41:24.506Z,11.41
2019-04-30T20:44:18.987Z,10.74
2019-04-30T20:47:05.454Z,10.59
2019-04-30T20:50:06.438Z,10.62
2019-04-30T20:52:53.042Z,10.79
2019-04-30T20:55:40.897Z,10.91
2019-04-30T20:58:26.705Z,11.07
2019-04-30T21:01:14.193Z,11.29
2019-04-30T21:04:01.018Z,11.50
2019-04-30T21:07:02.245Z,11.63
2019-04-30T21:09:49.131Z,11.72
2019-04-30T21:12:35.759Z,11.79
2019-04-30T21:15:22.863Z,11.83
2019-04-30T21:18:09.560Z,11.94
2019-04-30T21:24:02.437Z,12.08
2019-04-30T21:26:50.231Z,12.14
2019-04-30T21:29:39.092Z,12.19
2019-04-30T21:32:23.764Z,12.25
2019-04-30T21:35:22.463Z,12.32
2019-04-30T21:38:09.528Z,12.37
2019-04-30T21:40:55.973Z,12.42
2019-04-30T21:43:42.950Z,12.42
2019-04-30T21:46:30.886Z,12.43
2019-04-30T21:49:17.726Z,12.44
2019-04-30T21:52:04.837Z,12.45
2019-04-30T21:54:51.285Z,12.43
2019-04-30T21:57:39.206Z,13.02
2019-04-30T22:00:39.782Z,12.60
2019-04-30T22:03:26.497Z,12.51
2019-04-30T22:06:13.618Z,12.46
2019-04-30T22:09:00.527Z,13.03
2019-04-30T22:11:49.418Z,12.54
2019-04-30T22:14:35.349Z,12.43
2019-04-30T22:17:22.282Z,12.33
2019-04-30T22:20:09.590Z,12.25
2019-04-30T22:22:56.027Z,12.17
2019-04-30T22:25:42.607Z,12.09
2019-04-30T22:28:29.810Z,12.02
2019-04-30T22:31:16.388Z,11.95
2019-04-30T22:34:02.851Z,11.86
2019-04-30T22:36:58.639Z,12.44
2019-04-30T22:39:46.679Z,11.85
2019-04-30T22:42:33.695Z,11.63
2019-04-30T22:45:27.621Z,11.49
2019-04-30T22:48:28.863Z,11.37
2019-04-30T22:51:15.795Z,11.26
2019-04-30T22:54:02.726Z,11.20
2019-04-30T22:56:49.999Z,11.16
2019-04-30T22:59:50.598Z,11.16
2019-04-30T23:02:46.381Z,11.11
2019-04-30T23:05:33.248Z,11.07
2019-04-30T23:08:19.952Z,11.09
2019-04-30T23:11:09.610Z,11.86
2019-04-30T23:13:56.314Z,11.50
2019-04-30T23:16:43.175Z,11.50
2019-04-30T23:19:30.102Z,11.53
2019-04-30T23:22:24.386Z,11.54
2019-04-30T23:25:10.986Z,11.54
2019-04-30T23:27:57.751Z,11.60
2019-04-30T23:30:44.586Z,11.64
2019-04-30T23:33:31.041Z,11.73
2019-04-30T23:36:18.834Z,11.80
2019-04-30T23:39:05.610Z,11.83
2019-04-30T23:41:52.671Z,11.90
2019-04-30T23:44:39.155Z,11.96
2019-04-30T23:47:26.073Z,11.99
2019-04-30T23:50:12.963Z,12.04
2019-04-30T23:53:02.460Z,12.06
2019-04-30T23:55:49.193Z,12.73
2019-04-30T23:58:36.989Z,12.30
